Time;durP1;ratioP1;P1;durP2;ratioP2;P2;SDS_P1;SDS_P2;PMS_P1;PMS_P2;Temp;Humidity;BMP_temperature;BMP_pressure;BME280_temperature;BME280_humidity;BME280_pressure;Samples;Min_cycle;Max_cycle;Signal;HPM_P1;HPM_P2
2022/01/18 00:00:47;;;;;;;31.73;16.60;;;4.40;99.90;;;;;;5114018;28;20027;-69
2022/01/18 00:03:14;;;;;;;;;;;4.40;99.90;;;;;;5115063;28;20031;-69
2022/01/18 00:05:42;;;;;;;34.80;16.33;;;4.50;99.90;;;;;;5113647;28;20379;-71
2022/01/18 00:08:08;;;;;;;36.15;16.80;;;4.40;99.90;;;;;;5112545;28;20115;-70
2022/01/18 00:10:33;;;;;;;33.17;16.67;;;4.40;99.90;;;;;;5112264;28;20051;-70
2022/01/18 00:18:17;;;;;;;34.92;17.85;;;4.40;99.90;;;;;;5113268;28;20035;-70
2022/01/18 00:23:18;;;;;;;48.72;19.50;;;4.40;99.90;;;;;;5114057;28;20027;-70
2022/01/18 00:25:48;;;;;;;37.75;18.30;;;4.40;99.90;;;;;;5117603;28;20030;-70
2022/01/18 00:28:14;;;;;;;35.42;16.67;;;4.40;99.90;;;;;;5117316;28;20016;-70
2022/01/18 00:31:27;;;;;;;32.13;17.13;;;4.40;99.90;;;;;;5117276;27;20098;-71
2022/01/18 00:33:58;;;;;;;37.97;18.10;;;4.40;99.90;;;;;;5116941;28;20023;-71
2022/01/18 00:39:04;;;;;;;37.97;17.67;;;4.40;99.90;;;;;;5119549;28;20116;-69
2022/01/18 00:41:30;;;;;;;36.22;17.50;;;4.40;99.90;;;;;;5117868;28;20019;-70
2022/01/18 00:43:56;;;;;;;36.47;17.17;;;4.40;99.90;;;;;;5117505;28;20049;-67
2022/01/18 00:46:23;;;;;;;37.03;17.38;;;4.40;99.90;;;;;;5116920;28;20529;-68
2022/01/18 00:48:52;;;;;;;36.20;17.45;;;4.40;99.90;;;;;;5116968;28;20490;-68
2022/01/18 00:51:17;;;;;;;36.28;18.88;;;4.50;99.90;;;;;;5116857;28;20035;-69
2022/01/18 00:53:45;;;;;;;36.15;17.27;;;4.40;99.90;;;;;;5116747;28;20036;-68
2022/01/18 00:58:42;;;;;;;36.47;17.73;;;4.40;99.90;;;;;;5116775;28;20016;-68
2022/01/18 01:01:09;;;;;;;38.35;18.02;;;4.40;99.90;;;;;;5116419;28;20318;-67
2022/01/18 01:03:35;;;;;;;36.50;17.45;;;4.40;99.90;;;;;;5116757;28;20039;-68
2022/01/18 01:06:02;;;;;;;;;;;4.40;99.90;;;;;;5115878;28;20376;-68
2022/01/18 01:08:28;;;;;;;35.25;17.52;;;4.40;99.90;;;;;;5116304;28;20336;-68
2022/01/18 01:10:54;;;;;;;36.63;16.37;;;4.40;99.90;;;;;;5115295;28;20030;-68
2022/01/18 01:13:20;;;;;;;42.42;18.25;;;4.40;99.90;;;;;;5115334;28;20038;-68
2022/01/18 01:35:14;;;;;;;35.35;17.73;;;4.50;99.90;;;;;;5115921;28;20024;-67
2022/01/18 01:45:41;;;;;;;36.05;17.52;;;4.50;99.90;;;;;;5115972;28;20015;-68
2022/01/18 01:48:08;;;;;;;30.42;16.50;;;4.60;99.90;;;;;;5115645;28;20050;-67
2022/01/18 01:50:46;;;;;;;;;;;4.50;99.90;;;;;;5114603;28;20030;-68
2022/01/18 01:53:13;;;;;;;;;;;4.50;99.90;;;;;;5114783;28;19986;-68
2022/01/18 01:55:39;;;;;;;31.23;16.02;;;4.60;99.90;;;;;;5115428;28;19903;-68
2022/01/18 01:58:05;;;;;;;32.55;16.00;;;4.60;99.90;;;;;;5115492;28;20016;-68
2022/01/18 02:00:31;;;;;;;35.27;17.80;;;4.60;99.90;;;;;;5115373;28;20031;-68
2022/01/18 02:02:57;;;;;;;33.23;17.23;;;4.60;99.90;;;;;;5113842;28;20281;-68
2022/01/18 02:05:23;;;;;;;33.97;16.40;;;4.50;99.90;;;;;;5115370;28;20265;-68
2022/01/18 02:07:49;;;;;;;39.55;16.08;;;4.60;99.90;;;;;;5115335;28;20116;-68
2022/01/18 02:10:15;;;;;;;37.50;17.05;;;4.60;99.90;;;;;;5115680;28;20487;-68
2022/01/18 02:12:41;;;;;;;31.97;16.20;;;4.60;99.90;;;;;;5115516;28;20099;-68
2022/01/18 02:15:15;;;;;;;29.73;15.10;;;4.60;99.90;;;;;;5115442;28;20436;-68
2022/01/18 02:23:14;;;;;;;32.97;17.30;;;4.70;99.90;;;;;;5114993;28;20072;-68
2022/01/18 02:25:41;;;;;;;33.67;16.27;;;4.60;99.90;;;;;;5113614;28;20015;-68
2022/01/18 02:28:06;;;;;;;30.85;15.50;;;4.60;99.90;;;;;;5114882;28;20077;-68
2022/01/18 02:30:32;;;;;;;33.20;16.88;;;4.60;99.90;;;;;;5114976;28;20028;-68
2022/01/18 02:32:58;;;;;;;34.47;16.07;;;4.70;99.90;;;;;;5114832;28;20028;-68
2022/01/18 02:35:23;;;;;;;32.43;15.80;;;4.60;99.90;;;;;;5114746;28;20030;-68
2022/01/18 02:37:53;;;;;;;33.00;16.60;;;4.70;99.90;;;;;;5114600;28;20148;-69
2022/01/18 02:40:19;;;;;;;32.05;16.50;;;4.70;99.90;;;;;;5114689;28;20031;-68
2022/01/18 02:42:55;;;;;;;30.27;16.27;;;4.70;99.90;;;;;;5114514;28;20023;-69
2022/01/18 02:45:21;;;;;;;36.23;16.17;;;4.70;99.90;;;;;;5114445;28;20046;-68
2022/01/18 02:47:47;;;;;;;30.77;15.43;;;4.70;99.90;;;;;;5113893;28;20024;-67
2022/01/18 02:50:13;;;;;;;35.40;17.20;;;4.80;99.90;;;;;;5114877;28;20254;-67
2022/01/18 02:52:39;;;;;;;31.45;16.25;;;4.80;99.90;;;;;;5114552;28;20271;-68
2022/01/18 02:55:05;;;;;;;31.43;15.20;;;4.90;99.90;;;;;;5114768;28;20502;-68
2022/01/18 02:57:40;;;;;;;28.63;14.85;;;4.90;99.90;;;;;;5114256;28;20069;-67
2022/01/18 03:00:17;;;;;;;31.92;16.67;;;4.90;99.90;;;;;;5112800;28;20030;-68
2022/01/18 03:05:27;;;;;;;33.33;15.70;;;4.80;99.90;;;;;;5114048;28;20050;-67
2022/01/18 03:07:53;;;;;;;34.17;16.37;;;4.80;99.90;;;;;;5114379;28;20083;-67
2022/01/18 03:10:19;;;;;;;31.27;16.83;;;4.70;99.90;;;;;;5114786;28;20464;-68
2022/01/18 03:12:46;;;;;;;29.98;14.75;;;4.80;99.90;;;;;;5112879;28;20080;-68
2022/01/18 03:15:12;;;;;;;30.77;14.40;;;4.70;99.90;;;;;;5112787;28;20035;-68
2022/01/18 03:17:38;;;;;;;27.33;15.07;;;4.90;99.90;;;;;;5114512;28;20391;-69
2022/01/18 03:20:06;;;;;;;28.65;14.18;;;4.90;99.90;;;;;;5113768;28;20104;-67
2022/01/18 03:22:31;;;;;;;30.08;15.23;;;4.90;99.90;;;;;;5113929;28;20027;-68
2022/01/18 03:30:10;;;;;;;27.27;15.07;;;4.80;99.90;;;;;;5113991;28;20483;-68
2022/01/18 03:32:36;;;;;;;27.38;14.05;;;4.80;99.90;;;;;;5112593;28;20425;-68
2022/01/18 03:35:03;;;;;;;;;;;4.80;99.90;;;;;;5114029;28;20031;-68
2022/01/18 03:37:29;;;;;;;26.48;14.32;;;4.90;99.90;;;;;;5112285;28;19958;-68
2022/01/18 03:39:54;;;;;;;27.37;14.43;;;5.00;99.90;;;;;;5112369;28;20422;-68
2022/01/18 03:42:36;;;;;;;29.00;14.50;;;5.30;99.90;;;;;;5113491;28;20024;-68
2022/01/18 03:45:04;;;;;;;27.83;15.63;;;5.30;99.90;;;;;;5113722;28;20380;-68
2022/01/18 03:47:32;;;;;;;28.52;14.00;;;5.30;99.90;;;;;;5113508;28;20380;-68
2022/01/18 03:49:58;;;;;;;28.20;14.55;;;5.30;99.90;;;;;;5113441;28;20019;-68
2022/01/18 03:52:24;;;;;;;28.05;14.20;;;5.20;99.90;;;;;;5112060;28;20036;-68
2022/01/18 03:54:50;;;;;;;28.63;14.43;;;5.10;99.90;;;;;;5112213;28;20404;-68
2022/01/18 03:57:17;;;;;;;28.45;14.73;;;5.00;99.90;;;;;;5112163;28;20499;-68
2022/01/18 03:59:44;;;;;;;29.15;15.70;;;5.00;99.90;;;;;;5113735;28;20065;-68
2022/01/18 04:02:10;;;;;;;30.27;16.00;;;5.00;99.90;;;;;;5111932;28;20040;-68
2022/01/18 04:04:37;;;;;;;26.35;14.38;;;4.90;99.90;;;;;;5113401;28;20016;-68
2022/01/18 04:07:04;;;;;;;28.58;15.25;;;4.90;99.90;;;;;;5113410;28;20496;-68
2022/01/18 04:09:29;;;;;;;;;;;4.90;99.90;;;;;;5112604;28;20031;-68
2022/01/18 04:11:55;;;;;;;28.48;13.85;;;4.90;99.90;;;;;;5113571;28;20318;-68
2022/01/18 04:14:21;;;;;;;27.20;14.63;;;4.90;99.90;;;;;;5112693;28;20026;-68
2022/01/18 04:17:06;;;;;;;27.97;15.17;;;4.90;99.90;;;;;;5113721;28;20028;-67
2022/01/18 04:27:30;;;;;;;28.77;15.80;;;4.90;99.90;;;;;;5113522;28;20038;-68
2022/01/18 04:29:56;;;;;;;34.13;16.23;;;4.90;99.90;;;;;;5113951;28;20023;-67
2022/01/18 04:32:21;;;;;;;32.60;16.10;;;4.90;99.90;;;;;;5111707;28;20072;-67
2022/01/18 04:34:47;;;;;;;30.13;16.27;;;5.00;99.90;;;;;;5111550;28;20403;-67
2022/01/18 04:37:13;;;;;;;31.33;15.00;;;5.00;99.90;;;;;;5113043;28;20020;-67
2022/01/18 04:39:41;;;;;;;30.77;15.63;;;5.00;99.90;;;;;;5112989;28;20493;-68
2022/01/18 04:42:30;;;;;;;28.75;15.73;;;5.00;99.90;;;;;;5111317;28;20027;-68
2022/01/18 04:50:21;;;;;;;30.40;16.08;;;4.90;99.90;;;;;;5112913;28;20058;-68
2022/01/18 04:52:46;;;;;;;33.33;17.43;;;5.10;99.90;;;;;;5113097;28;20051;-68
2022/01/18 04:55:12;;;;;;;33.43;16.90;;;5.00;99.90;;;;;;5112628;28;20030;-68
2022/01/18 04:57:53;;;;;;;34.27;16.63;;;4.90;99.90;;;;;;5112894;28;20034;-68
2022/01/18 05:00:20;;;;;;;31.17;16.63;;;5.00;99.90;;;;;;5112240;28;20093;-68
2022/01/18 05:02:49;;;;;;;30.65;15.70;;;4.90;99.90;;;;;;5112669;28;20033;-68
2022/01/18 05:05:24;;;;;;;31.75;17.70;;;5.00;99.90;;;;;;5112681;28;20015;-68
2022/01/18 05:07:55;;;;;;;33.78;17.95;;;5.00;99.90;;;;;;5112841;28;20101;-68
2022/01/18 05:10:23;;;;;;;33.40;16.17;;;5.00;99.90;;;;;;5116276;28;20027;-67
2022/01/18 05:12:52;;;;;;;30.70;16.08;;;5.00;99.90;;;;;;5116602;28;20044;-71
2022/01/18 05:20:44;;;;;;;30.90;17.27;;;5.00;99.90;;;;;;5118019;28;20043;-68
2022/01/18 05:23:11;;;;;;;32.78;16.55;;;5.00;99.90;;;;;;5114880;28;20438;-70
2022/01/18 05:25:37;;;;;;;32.38;17.25;;;5.00;99.90;;;;;;5114945;28;20023;-68
2022/01/18 05:28:04;;;;;;;27.95;15.77;;;5.00;99.90;;;;;;5116198;28;20073;-66
2022/01/18 05:30:31;;;;;;;30.90;17.55;;;5.10;99.90;;;;;;5114861;28;20508;-68
2022/01/18 05:32:57;;;;;;;;;;;5.10;99.90;;;;;;5116821;28;20024;-68
2022/01/18 05:35:24;;;;;;;27.75;14.85;;;5.00;99.90;;;;;;5117149;28;19911;-68
2022/01/18 05:37:50;;;;;;;31.08;16.27;;;5.00;99.90;;;;;;5118597;28;20106;-67
2022/01/18 05:40:18;;;;;;;33.47;16.55;;;4.90;99.90;;;;;;5116544;27;20032;-69
2022/01/18 05:42:45;;;;;;;33.75;17.08;;;4.80;99.90;;;;;;5115838;28;20495;-67
2022/01/18 05:45:11;;;;;;;31.63;16.63;;;4.80;99.90;;;;;;5115985;28;20023;-68
2022/01/18 05:47:39;;;;;;;34.40;17.02;;;4.80;99.90;;;;;;5114424;28;20446;-68
2022/01/18 05:50:06;;;;;;;32.35;17.13;;;4.70;99.90;;;;;;5115749;28;20055;-66
2022/01/18 05:52:32;;;;;;;32.38;16.35;;;4.80;99.90;;;;;;5115657;28;20460;-67
2022/01/18 05:54:58;;;;;;;35.38;17.23;;;4.80;99.90;;;;;;5115528;28;20031;-65
2022/01/18 05:57:23;;;;;;;33.90;17.90;;;4.80;99.90;;;;;;5114334;28;20039;-69
2022/01/18 05:59:50;;;;;;;35.77;16.77;;;4.80;99.90;;;;;;5114630;28;20028;-69
2022/01/18 06:02:19;;;;;;;;;;;4.80;99.90;;;;;;5115625;28;20024;-69
2022/01/18 06:07:30;;;;;;;34.40;18.92;;;4.80;99.90;;;;;;5116120;28;20112;-67
2022/01/18 06:09:58;;;;;;;;;;;4.70;99.90;;;;;;5116246;28;20102;-69
2022/01/18 06:12:26;;;;;;;33.72;16.70;;;4.70;99.90;;;;;;5115311;28;20420;-64
2022/01/18 06:14:52;;;;;;;32.05;16.58;;;4.60;99.90;;;;;;5113776;28;20032;-64
2022/01/18 06:17:17;;;;;;;35.37;17.63;;;4.60;99.90;;;;;;5116051;28;20035;-66
2022/01/18 06:19:43;;;;;;;33.20;16.80;;;4.60;99.90;;;;;;5115785;28;20098;-66
2022/01/18 06:22:09;;;;;;;34.80;17.37;;;4.50;99.90;;;;;;5116140;28;20336;-66
2022/01/18 06:24:34;;;;;;;34.03;18.17;;;4.60;99.90;;;;;;5115909;28;20030;-67
2022/01/18 06:27:00;;;;;;;36.30;17.27;;;4.60;99.90;;;;;;5115684;28;20035;-65
2022/01/18 06:29:25;;;;;;;34.20;18.07;;;4.60;99.90;;;;;;5115321;28;20015;-66
2022/01/18 06:31:51;;;;;;;36.57;17.57;;;4.70;99.90;;;;;;5118329;28;20019;-66
2022/01/18 06:34:17;;;;;;;31.33;16.70;;;4.70;99.90;;;;;;5114875;28;20032;-65
2022/01/18 06:36:43;;;;;;;34.13;17.63;;;4.70;99.90;;;;;;5113537;28;20019;-65
2022/01/18 06:39:09;;;;;;;34.47;16.80;;;4.70;99.90;;;;;;5114816;28;20331;-65
2022/01/18 06:41:35;;;;;;;32.03;16.92;;;4.70;99.90;;;;;;5114680;28;20024;-63
2022/01/18 06:44:00;;;;;;;36.85;17.98;;;4.90;99.90;;;;;;5115362;28;20094;-70
2022/01/18 06:46:26;;;;;;;32.67;17.27;;;5.00;99.90;;;;;;5114780;28;20468;-71
2022/01/18 06:48:53;;;;;;;29.52;16.42;;;5.00;99.90;;;;;;5113576;28;20391;-69
2022/01/18 06:51:20;;;;;;;31.33;16.13;;;4.90;99.90;;;;;;5112846;28;20016;-68
2022/01/18 06:53:47;;;;;;;32.70;17.42;;;4.90;99.90;;;;;;5113916;28;20026;-70
2022/01/18 06:56:15;;;;;;;31.33;16.60;;;4.90;99.90;;;;;;5114523;28;20016;-70
2022/01/18 06:58:42;;;;;;;31.20;17.27;;;4.80;99.90;;;;;;5113085;28;20035;-70
2022/01/18 07:01:08;;;;;;;;;;;4.80;99.90;;;;;;5114613;28;20031;-70
2022/01/18 07:03:34;;;;;;;36.53;17.50;;;4.80;99.90;;;;;;5114617;28;20244;-69
2022/01/18 07:06:00;;;;;;;34.03;18.90;;;4.80;99.90;;;;;;5114493;28;20035;-71
2022/01/18 07:08:25;;;;;;;34.53;19.10;;;4.80;99.90;;;;;;5114555;28;20392;-70
2022/01/18 07:10:51;;;;;;;35.63;20.30;;;4.80;99.90;;;;;;5114071;28;20444;-69
2022/01/18 07:13:16;;;;;;;34.53;19.00;;;4.80;99.90;;;;;;5112794;28;20023;-69
2022/01/18 07:15:42;;;;;;;36.37;19.73;;;4.80;99.90;;;;;;5114340;28;20027;-70
2022/01/18 07:18:10;;;;;;;33.00;17.93;;;4.80;99.90;;;;;;5113973;28;20118;-70
2022/01/18 07:20:36;;;;;;;37.45;19.73;;;4.80;99.90;;;;;;5112629;28;20102;-71
2022/01/18 07:23:02;;;;;;;37.13;21.58;;;4.90;99.90;;;;;;5114342;28;20489;-70
2022/01/18 07:25:28;;;;;;;36.60;19.17;;;4.80;99.90;;;;;;5114600;28;20035;-70
2022/01/18 07:27:53;;;;;;;36.57;19.70;;;4.90;99.90;;;;;;5112672;28;20304;-69
2022/01/18 07:30:19;;;;;;;36.87;19.63;;;4.90;99.90;;;;;;5113648;28;20028;-69
2022/01/18 07:32:45;;;;;;;36.30;19.33;;;4.90;99.90;;;;;;5113391;28;20058;-70
2022/01/18 07:35:12;;;;;;;35.27;20.23;;;5.00;99.90;;;;;;5113766;28;20051;-70
2022/01/18 07:37:38;;;;;;;38.47;21.02;;;5.00;99.90;;;;;;5113448;28;20110;-70
2022/01/18 07:40:05;;;;;;;36.63;19.53;;;5.00;99.90;;;;;;5113435;28;20111;-71
2022/01/18 07:42:31;;;;;;;36.42;19.48;;;5.00;99.90;;;;;;5113171;28;20479;-70
2022/01/18 07:44:57;;;;;;;36.00;18.88;;;5.00;99.90;;;;;;5113432;28;20130;-70
2022/01/18 07:47:23;;;;;;;36.13;19.67;;;5.10;99.90;;;;;;5112130;28;20110;-70
2022/01/18 07:49:49;;;;;;;39.80;21.00;;;5.00;99.90;;;;;;5115651;28;20292;-67
2022/01/18 07:52:16;;;;;;;39.20;19.83;;;5.10;99.90;;;;;;5113851;28;20027;-66
2022/01/18 07:54:42;;;;;;;38.78;18.42;;;5.10;99.90;;;;;;5114551;28;20043;-68
2022/01/18 07:57:08;;;;;;;32.40;18.88;;;5.20;99.90;;;;;;5118624;28;20050;-68
2022/01/18 07:59:34;;;;;;;37.28;17.17;;;5.30;99.90;;;;;;5117951;28;20053;-68
2022/01/18 08:02:00;;;;;;;35.33;18.77;;;5.30;99.90;;;;;;5121323;28;20137;-68
2022/01/18 08:04:25;;;;;;;36.00;19.00;;;5.30;99.90;;;;;;5123989;28;20287;-67
2022/01/18 08:06:51;;;;;;;36.53;19.43;;;5.30;99.90;;;;;;5118602;28;20051;-66
2022/01/18 08:09:19;;;;;;;41.27;21.00;;;5.20;99.90;;;;;;5115681;28;20020;-67
2022/01/18 08:11:51;;;;;;;36.58;19.08;;;5.20;99.90;;;;;;5114166;28;20317;-68
2022/01/18 08:14:17;;;;;;;42.42;21.27;;;5.20;99.90;;;;;;5113687;28;20020;-67
2022/01/18 08:19:10;;;;;;;39.13;21.05;;;5.30;99.90;;;;;;5114318;28;20108;-67
2022/01/18 08:21:36;;;;;;;38.50;19.57;;;5.40;99.90;;;;;;5113809;28;20425;-67
2022/01/18 08:24:02;;;;;;;37.90;20.75;;;5.30;99.90;;;;;;5112184;28;20019;-67
2022/01/18 08:26:27;;;;;;;44.20;20.70;;;5.40;99.90;;;;;;5114215;28;20019;-68
2022/01/18 08:28:53;;;;;;;40.13;20.80;;;5.40;99.90;;;;;;5114086;28;20316;-68
2022/01/18 08:31:19;;;;;;;39.80;19.90;;;5.40;99.90;;;;;;5113501;28;20452;-68
2022/01/18 08:33:44;;;;;;;37.73;19.97;;;5.40;99.90;;;;;;5115462;28;20107;-68
2022/01/18 08:36:10;;;;;;;44.00;21.53;;;5.40;99.90;;;;;;5114508;28;20494;-69
2022/01/18 08:38:37;;;;;;;41.63;20.37;;;5.40;99.90;;;;;;5113768;28;20115;-68
2022/01/18 08:41:08;;;;;;;44.00;22.42;;;5.40;99.90;;;;;;5114468;28;20024;-66
2022/01/18 08:43:36;;;;;;;40.35;19.65;;;5.50;99.90;;;;;;5114796;28;20473;-68
2022/01/18 08:46:06;;;;;;;40.35;19.90;;;5.70;99.90;;;;;;5117517;28;20042;-68
2022/01/18 08:48:32;;;;;;;33.60;18.23;;;5.80;99.90;;;;;;5118299;28;20016;-68
2022/01/18 08:50:59;;;;;;;38.65;19.42;;;5.80;99.90;;;;;;5117924;28;20023;-67
2022/01/18 08:53:25;;;;;;;35.45;17.73;;;5.70;99.90;;;;;;5117154;28;20046;-67
2022/01/18 08:55:51;;;;;;;37.93;19.03;;;5.60;99.90;;;;;;5116648;28;20019;-68
2022/01/18 08:58:16;;;;;;;37.83;18.80;;;5.70;99.90;;;;;;5116831;28;20513;-67
2022/01/18 09:00:42;;;;;;;36.37;19.10;;;5.70;99.90;;;;;;5116762;28;20034;-67
2022/01/18 09:03:09;;;;;;;37.00;20.00;;;5.80;99.90;;;;;;5116710;28;20088;-68
2022/01/18 09:05:37;;;;;;;42.47;21.02;;;5.90;99.90;;;;;;5116712;28;20012;-67
2022/01/18 09:08:06;;;;;;;38.25;19.73;;;5.90;99.90;;;;;;5115342;28;20047;-67
2022/01/18 09:10:32;;;;;;;36.75;18.63;;;6.00;99.90;;;;;;5117319;28;20071;-68
2022/01/18 09:12:57;;;;;;;32.10;17.98;;;6.00;99.90;;;;;;5117141;28;20070;-68
2022/01/18 09:15:25;;;;;;;32.63;17.83;;;6.00;99.90;;;;;;5115192;28;20035;-67
2022/01/18 09:17:51;;;;;;;38.65;19.42;;;6.00;99.90;;;;;;5115390;28;20776;-68
2022/01/18 09:20:17;;;;;;;42.90;19.27;;;5.90;99.90;;;;;;5117209;27;20032;-68
2022/01/18 09:22:45;;;;;;;33.30;17.20;;;5.90;99.90;;;;;;5116819;28;20058;-68
2022/01/18 09:25:22;;;;;;;35.13;17.58;;;5.90;99.90;;;;;;5115419;28;20020;-68
2022/01/18 09:27:48;;;;;;;34.85;19.65;;;5.80;99.90;;;;;;5116103;28;20086;-67
2022/01/18 09:30:15;;;;;;;;;;;5.90;99.90;;;;;;5117427;28;20038;-67
2022/01/18 09:32:43;;;;;;;40.83;19.00;;;6.00;99.90;;;;;;5118224;28;19930;-68
2022/01/18 09:35:09;;;;;;;34.58;18.52;;;6.00;99.90;;;;;;5115710;28;20028;-67
2022/01/18 09:37:34;;;;;;;34.20;18.33;;;6.10;99.90;;;;;;5116558;28;20027;-67
2022/01/18 09:40:01;;;;;;;38.50;19.47;;;6.20;99.90;;;;;;5115912;28;20043;-67
2022/01/18 09:42:33;;;;;;;;;;;6.30;99.90;;;;;;5116495;28;20034;-67
2022/01/18 09:45:03;;;;;;;39.65;21.80;;;6.30;99.90;;;;;;5114593;28;19911;-68
2022/01/18 09:47:28;;;;;;;35.30;18.10;;;6.40;99.90;;;;;;5116320;28;20035;-68
2022/01/18 09:49:57;;;;;;;36.80;18.27;;;6.50;99.90;;;;;;5115857;28;20023;-67
2022/01/18 09:52:22;;;;;;;29.92;16.73;;;6.60;99.90;;;;;;5115781;28;20019;-68
2022/01/18 09:54:48;;;;;;;35.03;16.73;;;6.60;99.90;;;;;;5114182;28;20388;-67
2022/01/18 09:57:14;;;;;;;34.25;17.48;;;6.70;99.90;;;;;;5115856;28;20424;-68
2022/01/18 09:59:39;;;;;;;34.93;18.10;;;6.90;99.90;;;;;;5115584;28;20563;-68
2022/01/18 10:02:06;;;;;;;29.87;17.40;;;7.00;99.90;;;;;;5115978;28;20032;-67
2022/01/18 10:04:42;;;;;;;30.60;16.27;;;6.90;99.90;;;;;;5115038;28;20043;-68
2022/01/18 10:07:08;;;;;;;33.05;17.58;;;6.90;99.90;;;;;;5115288;28;20025;-68
2022/01/18 10:09:35;;;;;;;35.72;17.98;;;7.00;99.90;;;;;;5115326;28;20103;-68
2022/01/18 10:12:10;;;;;;;27.45;15.80;;;7.20;99.90;;;;;;5115276;28;20023;-68
2022/01/18 10:14:39;;;;;;;30.98;16.10;;;7.30;99.90;;;;;;5115324;28;20019;-68
2022/01/18 10:17:07;;;;;;;31.80;16.00;;;7.20;99.90;;;;;;5114089;28;20481;-67
2022/01/18 10:19:37;;;;;;;28.33;15.40;;;7.30;99.90;;;;;;5115168;28;20020;-66
2022/01/18 10:22:15;;;;;;;28.20;15.52;;;7.30;99.90;;;;;;5115344;28;20030;-67
2022/01/18 10:24:42;;;;;;;27.08;13.93;;;7.40;99.90;;;;;;5113394;28;20049;-67
2022/01/18 10:27:09;;;;;;;28.50;14.32;;;7.50;99.90;;;;;;5115189;28;20020;-67
2022/01/18 10:29:40;;;;;;;26.75;14.93;;;7.40;99.90;;;;;;5114898;27;20020;-67
2022/01/18 10:32:35;;;;;;;29.38;13.63;;;7.50;99.90;;;;;;5115345;28;20034;-66
2022/01/18 10:37:25;;;;;;;27.73;14.90;;;7.40;99.90;;;;;;5114992;28;20109;-67
2022/01/18 10:39:55;;;;;;;28.95;15.00;;;7.40;99.90;;;;;;5114521;28;20055;-67
2022/01/18 10:42:32;;;;;;;27.55;13.30;;;7.30;99.90;;;;;;5114603;28;20024;-68
2022/01/18 10:45:13;;;;;;;26.38;14.32;;;7.30;99.90;;;;;;5114354;28;20468;-68
2022/01/18 10:47:50;;;;;;;26.42;13.27;;;7.40;99.90;;;;;;5113378;28;20115;-67
2022/01/18 10:50:17;;;;;;;;;;;7.30;99.90;;;;;;5114961;28;20023;-67
2022/01/18 10:52:43;;;;;;;25.83;13.40;;;7.30;99.90;;;;;;5114521;28;19926;-67
2022/01/18 10:55:24;;;;;;;26.15;13.98;;;7.30;99.90;;;;;;5113770;28;20520;-69
2022/01/18 10:57:51;;;;;;;22.20;10.98;;;7.30;99.90;;;;;;5114873;28;20038;-68
2022/01/18 11:00:23;;;;;;;23.85;11.93;;;7.20;99.90;;;;;;5113424;28;20151;-68
2022/01/18 11:02:51;;;;;;;27.20;12.90;;;7.20;99.90;;;;;;5114415;28;20110;-66
2022/01/18 11:05:19;;;;;;;23.98;11.40;;;7.20;99.90;;;;;;5118151;28;20032;-68
2022/01/18 11:07:46;;;;;;;23.30;11.95;;;7.30;99.90;;;;;;5115902;28;20015;-69
2022/01/18 11:10:14;;;;;;;24.52;11.50;;;7.30;99.90;;;;;;5113174;28;20024;-70
2022/01/18 11:13:04;;;;;;;16.98;9.07;;;7.30;99.90;;;;;;5114276;28;20122;-70
2022/01/18 11:15:32;;;;;;;19.50;9.77;;;7.40;99.90;;;;;;5117649;28;20040;-70
2022/01/18 11:18:02;;;;;;;17.83;8.85;;;7.40;99.90;;;;;;5115422;28;20133;-70
2022/01/18 11:20:31;;;;;;;18.15;8.18;;;7.40;99.90;;;;;;5114093;28;20024;-69
2022/01/18 11:22:57;;;;;;;17.02;8.57;;;7.50;99.90;;;;;;5115688;28;20054;-69
2022/01/18 11:25:24;;;;;;;17.48;8.63;;;7.50;99.90;;;;;;5115459;28;20025;-69
2022/01/18 11:27:52;;;;;;;13.25;7.78;;;7.60;99.90;;;;;;5116300;27;20095;-69
2022/01/18 11:30:20;;;;;;;18.88;8.80;;;7.60;99.90;;;;;;5116058;28;20107;-69
2022/01/18 11:32:46;;;;;;;19.15;8.35;;;7.50;99.90;;;;;;5115183;28;20098;-69
2022/01/18 11:35:25;;;;;;;18.67;8.30;;;7.30;99.90;;;;;;5115692;28;20024;-69
2022/01/18 11:38:16;;;;;;;16.02;7.65;;;7.30;99.90;;;;;;5114903;28;20111;-69
2022/01/18 11:40:52;;;;;;;16.17;8.20;;;7.40;99.90;;;;;;5112905;28;20024;-69
2022/01/18 11:43:41;;;;;;;15.52;8.02;;;7.40;99.90;;;;;;5114023;28;20027;-68
2022/01/18 11:46:22;;;;;;;13.23;8.30;;;7.60;99.90;;;;;;5114247;28;20068;-68
2022/01/18 11:48:50;;;;;;;13.48;7.15;;;7.60;99.90;;;;;;5114614;28;20384;-69
2022/01/18 11:51:19;;;;;;;16.17;7.55;;;7.60;99.90;;;;;;5115036;28;20016;-69
2022/01/18 11:56:35;;;;;;;17.10;7.85;;;8.00;99.90;;;;;;5113750;28;20480;-69
2022/01/18 11:59:14;;;;;;;20.85;7.93;;;8.20;99.90;;;;;;5108947;27;20390;-68
2022/01/18 12:01:58;;;;;;;14.70;6.82;;;8.30;99.90;;;;;;5113574;28;20027;-67
2022/01/18 12:05:21;;;;;;;12.73;6.80;;;8.10;99.90;;;;;;5114063;28;20024;-68
2022/01/18 12:07:39;;;;;;;8.77;5.50;;;8.20;99.90;;;;;;5110275;28;20051;-68
2022/01/18 12:10:08;;;;;;;24.55;10.05;;;8.10;99.90;;;;;;5112532;28;20324;-68
2022/01/18 12:12:45;;;;;;;15.52;6.70;;;8.20;99.90;;;;;;5113808;28;20020;-69
2022/01/18 12:15:19;;;;;;;15.43;8.47;;;8.20;99.90;;;;;;5112517;28;20038;-70
2022/01/18 12:17:50;;;;;;;10.80;5.43;;;8.20;99.90;;;;;;5113004;28;20289;-69
2022/01/18 12:20:43;;;;;;;122.93;44.22;;;8.20;99.90;;;;;;5115134;28;20034;-69
2022/01/18 12:23:20;;;;;;;35.28;17.45;;;8.10;99.90;;;;;;5116950;28;20024;-70
2022/01/18 12:28:51;;;;;;;10.52;4.40;;;8.20;99.90;;;;;;5117572;27;20313;-69
2022/01/18 12:34:34;;;;;;;9.32;3.42;;;8.30;99.90;;;;;;5116960;28;20035;-69
2022/01/18 12:39:50;;;;;;;9.15;2.80;;;8.20;99.90;;;;;;5117133;27;20028;-69
2022/01/18 12:45:11;;;;;;;7.60;2.95;;;7.90;99.90;;;;;;5111712;22;20090;-63
2022/01/18 12:47:42;;;;;;;5.15;1.98;;;7.90;99.90;;;;;;5077154;28;20032;-69
2022/01/18 12:50:10;;;;;;;6.63;2.28;;;7.90;99.90;;;;;;5058994;28;20029;-62
2022/01/18 12:52:53;;;;;;;4.68;1.90;;;7.90;99.90;;;;;;5076618;28;20099;-65
2022/01/18 12:55:35;;;;;;;5.88;1.88;;;7.80;99.90;;;;;;5095105;28;20618;-66
2022/01/18 12:58:01;;;;;;;3.63;1.55;;;7.70;99.90;;;;;;5098101;28;20060;-66
2022/01/18 13:00:27;;;;;;;4.30;1.37;;;7.60;99.90;;;;;;5097215;28;20531;-62
2022/01/18 13:02:58;;;;;;;3.88;1.40;;;7.50;99.90;;;;;;5097144;28;20071;-65
2022/01/18 13:05:36;;;;;;;4.57;1.08;;;7.50;99.90;;;;;;5078475;28;20138;-66
2022/01/18 13:08:03;;;;;;;5.28;1.25;;;7.50;99.90;;;;;;5097224;28;20429;-66
2022/01/18 13:10:41;;;;;;;3.25;1.50;;;7.50;99.90;;;;;;5097421;28;20016;-66
2022/01/18 13:13:08;;;;;;;4.88;1.63;;;7.40;99.90;;;;;;5097340;28;20060;-67
2022/01/18 13:15:50;;;;;;;5.10;1.50;;;7.50;99.90;;;;;;5096291;28;20107;-67
2022/01/18 13:23:57;;;;;;;3.03;1.20;;;7.40;99.90;;;;;;5097836;28;20054;-64
2022/01/18 13:26:32;;;;;;;2.20;1.13;;;7.30;99.90;;;;;;5096360;28;20103;-64
2022/01/18 13:29:13;;;;;;;5.85;0.95;;;7.40;99.90;;;;;;5096410;28;20089;-64
2022/01/18 13:31:41;;;;;;;5.05;0.95;;;7.30;99.90;;;;;;5076998;28;20028;-67
2022/01/18 13:34:11;;;;;;;3.03;1.10;;;7.30;99.90;;;;;;5096577;28;20026;-66
2022/01/18 13:36:51;;;;;;;2.53;0.90;;;7.20;99.90;;;;;;5096917;28;20015;-63
2022/01/18 13:39:23;;;;;;;3.63;1.02;;;7.30;99.90;;;;;;5096125;28;20020;-63
2022/01/18 13:41:49;;;;;;;2.75;1.35;;;7.30;99.90;;;;;;5095969;28;20105;-63
2022/01/18 13:44:14;;;;;;;5.97;2.07;;;7.30;99.90;;;;;;5095723;28;20094;-65
2022/01/18 13:46:40;;;;;;;3.60;1.77;;;7.30;99.90;;;;;;5096667;28;20734;-63
2022/01/18 13:49:09;;;;;;;2.83;1.17;;;7.20;99.90;;;;;;5096793;28;20024;-62
2022/01/18 13:51:35;;;;;;;3.28;1.63;;;7.20;99.90;;;;;;5095989;28;20481;-64
2022/01/18 13:54:07;;;;;;;2.85;1.52;;;7.20;99.90;;;;;;5096047;28;20032;-63
2022/01/18 13:56:33;;;;;;;2.47;1.60;;;7.20;99.90;;;;;;5077516;28;20032;-63
2022/01/18 13:59:04;;;;;;;3.13;1.67;;;7.20;99.90;;;;;;5095523;28;20086;-63
2022/01/18 14:01:35;;;;;;;4.15;1.50;;;7.20;99.90;;;;;;5076996;28;20261;-65
2022/01/18 14:04:14;;;;;;;3.78;1.40;;;7.20;99.90;;;;;;5095470;28;20031;-63
2022/01/18 14:06:42;;;;;;;2.72;1.38;;;7.20;99.90;;;;;;5095643;28;20028;-62
2022/01/18 14:09:10;;;;;;;3.45;1.52;;;7.20;99.90;;;;;;5095363;28;20023;-65
2022/01/18 14:11:37;;;;;;;4.28;1.33;;;7.20;99.90;;;;;;5095656;28;20084;-67
2022/01/18 14:14:22;;;;;;;4.93;2.15;;;7.20;99.90;;;;;;5096060;28;20078;-66
2022/01/18 14:16:55;;;;;;;4.22;2.30;;;7.20;99.90;;;;;;5077712;28;20021;-67
2022/01/18 14:19:43;;;;;;;6.40;3.00;;;7.20;99.90;;;;;;5077169;28;20050;-61
2022/01/18 14:22:16;;;;;;;4.60;2.38;;;7.20;99.90;;;;;;5095233;28;20028;-60
2022/01/18 14:24:48;;;;;;;2.67;1.90;;;7.20;99.90;;;;;;5076989;28;20145;-62
2022/01/18 14:27:22;;;;;;;4.40;1.90;;;7.20;99.90;;;;;;5094926;28;20020;-62
2022/01/18 14:29:51;;;;;;;5.28;2.00;;;7.20;99.90;;;;;;5095431;28;20533;-62
2022/01/18 14:32:26;;;;;;;4.60;2.25;;;7.10;99.90;;;;;;5095261;28;20058;-62
2022/01/18 14:34:56;;;;;;;4.90;2.25;;;7.10;99.90;;;;;;5095124;28;20020;-60